Time;durP1;ratioP1;P1;durP2;ratioP2;P2;SDS_P1;SDS_P2;PMS_P1;PMS_P2;Temp;Humidity;BMP_temperature;BMP_pressure;BME280_temperature;BME280_humidity;BME280_pressure;Samples;Min_cycle;Max_cycle;Signal;HPM_P1;HPM_P2
2021/12/14 00:00:39;;;;;;;17.97;5.27;;;;;;;;;;5081813;28;20985;-74
2021/12/14 00:03:06;;;;;;;27.43;5.97;;;;;;;;;;5083441;28;20412;-74
2021/12/14 00:05:34;;;;;;;10.60;4.17;;;;;;;;;;5074272;28;20401;-74
2021/12/14 00:08:02;;;;;;;21.03;5.23;;;;;;;;;;5073711;28;20741;-74
2021/12/14 00:13:12;;;;;;;19.03;5.10;;;;;;;;;;5073401;28;20417;-74
2021/12/14 00:15:38;;;;;;;13.57;4.77;;;;;;;;;;5084296;28;20451;-74
2021/12/14 00:18:06;;;;;;;24.47;5.20;;;;;;;;;;5076203;28;20412;-74
2021/12/14 00:20:39;;;;;;;7.77;3.63;;;;;;;;;;5072775;28;20771;-74
2021/12/14 00:25:35;;;;;;;7.70;3.90;;;;;;;;;;5084121;28;20486;-74
2021/12/14 00:28:04;;;;;;;9.20;4.00;;;;;;;;;;5073460;28;20413;-74
2021/12/14 00:30:32;;;;;;;19.27;5.20;;;;;;;;;;5074029;28;20444;-74
2021/12/14 00:32:59;;;;;;;10.00;4.07;;;;;;;;;;5079601;28;20436;-74
2021/12/14 00:35:25;;;;;;;16.50;4.70;;;;;;;;;;5078332;28;20459;-74
2021/12/14 00:37:53;;;;;;;12.33;4.40;;;;;;;;;;5072547;28;20771;-74
2021/12/14 00:40:25;;;;;;;11.60;4.30;;;;;;;;;;5085947;28;20448;-74
2021/12/14 00:42:52;;;;;;;7.13;3.50;;;;;;;;;;5079110;28;20425;-74
2021/12/14 00:45:19;;;;;;;8.33;3.50;;;;;;;;;;5077652;28;20450;-74
2021/12/14 00:47:46;;;;;;;26.67;5.57;;;;;;;;;;5081088;28;20566;-74
2021/12/14 00:50:12;;;;;;;16.70;4.53;;;;;;;;;;5086150;28;20528;-74
2021/12/14 00:52:41;;;;;;;22.67;5.67;;;;;;;;;;5085669;28;20570;-76
2021/12/14 00:55:09;;;;;;;15.27;5.00;;;;;;;;;;5075477;28;20452;-76
2021/12/14 00:57:36;;;;;;;15.43;4.73;;;;;;;;;;5083332;28;20500;-76
2021/12/14 01:00:05;;;;;;;17.90;4.20;;;;;;;;;;5087852;28;20914;-77
2021/12/14 01:02:31;;;;;;;11.87;4.20;;;;;;;;;;5082582;28;20429;-76
2021/12/14 01:05:04;;;;;;;13.20;3.87;;;;;;;;;;5074821;28;20818;-76
2021/12/14 01:07:31;;;;;;;13.30;4.43;;;;;;;;;;5073588;28;20492;-74
2021/12/14 01:10:00;;;;;;;17.33;4.87;;;;;;;;;;5077516;28;20408;-74
2021/12/14 01:12:38;;;;;;;18.93;4.80;;;;;;;;;;5078853;28;20762;-74
2021/12/14 01:15:31;;;;;;;10.43;3.70;;;;;;;;;;5086732;28;20452;-74
2021/12/14 01:20:43;;;;;;;16.77;4.80;;;;;;;;;;5072966;28;20402;-74
2021/12/14 01:23:25;;;;;;;19.67;5.40;;;;;;;;;;5078313;28;20491;-76
2021/12/14 01:25:52;;;;;;;11.60;4.30;;;;;;;;;;5076201;28;20508;-76
2021/12/14 01:28:21;;;;;;;9.23;4.20;;;;;;;;;;5077109;28;20444;-76
2021/12/14 01:31:15;;;;;;;12.20;4.07;;;;;;;;;;5079064;28;20417;-76
2021/12/14 01:33:38;;;;;;;8.63;3.93;;;;;;;;;;5088144;28;20440;-76
2021/12/14 01:36:11;;;;;;;15.47;4.43;;;;;;;;;;5091675;28;20453;-76
2021/12/14 01:39:08;;;;;;;10.03;3.60;;;;;;;;;;5076951;28;20771;-76
2021/12/14 01:41:39;;;;;;;16.43;4.90;;;;;;;;;;5083407;28;20408;-76
2021/12/14 01:44:07;;;;;;;10.63;4.70;;;;;;;;;;5083204;28;20432;-77
2021/12/14 01:46:41;;;;;;;7.73;3.83;;;;;;;;;;5095989;28;20407;-76
2021/12/14 01:49:09;;;;;;;12.30;4.73;;;;;;;;;;5083052;28;20404;-76
2021/12/14 01:51:39;;;;;;;23.90;5.23;;;;;;;;;;5096518;28;20456;-76
2021/12/14 01:54:15;;;;;;;12.07;4.40;;;;;;;;;;5083355;28;20815;-76
2021/12/14 01:56:41;;;;;;;6.33;3.60;;;;;;;;;;5091698;28;20450;-76
2021/12/14 01:59:10;;;;;;;9.27;3.90;;;;;;;;;;5076399;28;20409;-76
2021/12/14 02:01:45;;;;;;;11.80;4.17;;;;;;;;;;5078743;28;20401;-76
2021/12/14 02:04:19;;;;;;;20.73;4.70;;;;;;;;;;5076181;28;20413;-76
2021/12/14 02:06:55;;;;;;;14.13;3.60;;;;;;;;;;5079357;28;20424;-76
2021/12/14 02:09:24;;;;;;;10.47;4.20;;;;;;;;;;5084861;28;20895;-76
2021/12/14 02:11:51;;;;;;;4.80;3.00;;;;;;;;;;5092211;28;20472;-76
2021/12/14 02:14:18;;;;;;;12.93;4.07;;;;;;;;;;5083969;28;20882;-76
2021/12/14 02:16:47;;;;;;;20.80;4.30;;;;;;;;;;5089240;28;20788;-76
2021/12/14 02:19:14;;;;;;;16.03;4.97;;;;;;;;;;5082006;28;20424;-76
2021/12/14 02:21:41;;;;;;;23.40;6.33;;;;;;;;;;5081966;28;20404;-76
2021/12/14 02:24:08;;;;;;;15.43;4.07;;;;;;;;;;5081503;28;20872;-74
2021/12/14 02:26:36;;;;;;;8.97;4.13;;;;;;;;;;5094021;28;20883;-74
2021/12/14 02:29:04;;;;;;;20.43;5.03;;;;;;;;;;5081257;28;20911;-74
2021/12/14 02:31:30;;;;;;;16.10;5.00;;;;;;;;;;5075310;28;20415;-74
2021/12/14 02:33:59;;;;;;;19.57;4.70;;;;;;;;;;5077974;28;20448;-74
2021/12/14 02:36:34;;;;;;;13.10;4.63;;;;;;;;;;5075042;28;20503;-74
2021/12/14 02:39:22;;;;;;;26.40;5.97;;;;;;;;;;5075720;28;20516;-75
2021/12/14 02:41:50;;;;;;;13.83;4.47;;;;;;;;;;5075270;28;20413;-74
2021/12/14 02:44:17;;;;;;;7.57;3.37;;;;;;;;;;5075389;28;20421;-74
2021/12/14 02:46:47;;;;;;;12.03;4.50;;;;;;;;;;5075365;28;20436;-74
2021/12/14 02:49:15;;;;;;;24.10;4.40;;;;;;;;;;5083790;28;20420;-74
2021/12/14 02:51:42;;;;;;;18.57;5.83;;;;;;;;;;5089402;28;20478;-74
2021/12/14 02:54:17;;;;;;;14.10;4.90;;;;;;;;;;5089148;28;20500;-76
2021/12/14 02:56:46;;;;;;;18.10;6.20;;;;;;;;;;5095183;28;20447;-76
2021/12/14 02:59:17;;;;;;;11.50;4.50;;;;;;;;;;5092031;28;20458;-76
2021/12/14 03:01:44;;;;;;;17.00;5.30;;;;;;;;;;5077551;28;20920;-76
2021/12/14 03:04:10;;;;;;;26.17;6.23;;;;;;;;;;5086593;28;20497;-76
2021/12/14 03:06:46;;;;;;;11.33;4.50;;;;;;;;;;5075187;28;20422;-76
2021/12/14 03:12:23;;;;;;;11.57;4.23;;;;;;;;;;5067806;28;20425;-76
2021/12/14 03:14:51;;;;;;;9.47;4.23;;;;;;;;;;5045296;28;20426;-76
2021/12/14 03:17:18;;;;;;;14.23;4.17;;;;;;;;;;5069816;28;20515;-76
2021/12/14 03:19:51;;;;;;;17.20;5.30;;;;;;;;;;5072394;28;20439;-76
2021/12/14 03:22:44;;;;;;;10.33;4.30;;;;;;;;;;5058520;28;20422;-76
2021/12/14 03:25:15;;;;;;;16.50;5.53;;;;;;;;;;5032369;28;20441;-76
2021/12/14 03:27:42;;;;;;;15.23;5.10;;;;;;;;;;5032522;28;20411;-77
2021/12/14 03:30:43;;;;;;;12.97;5.03;;;8.30;1.00;;;;;;5025187;28;20451;-76
2021/12/14 03:33:18;;;;;;;24.60;4.87;;;;;;;;;;5024372;28;20546;-76
2021/12/14 03:35:52;;;;;;;12.00;4.63;;;;;;;;;;5015601;28;20809;-76
2021/12/14 03:38:20;;;;;;;26.93;5.87;;;;;;;;;;5031537;28;20431;-74
2021/12/14 03:40:57;;;;;;;13.70;5.97;;;;;;;;;;5032171;28;20494;-74
2021/12/14 03:43:24;;;;;;;14.07;6.43;;;;;;;;;;5027685;28;20434;-75
2021/12/14 03:45:50;;;;;;;15.13;5.80;;;;;;;;;;5011546;28;20456;-75
2021/12/14 03:48:17;;;;;;;11.10;6.33;;;;;;;;;;5034854;28;20430;-75
2021/12/14 03:50:43;;;;;;;13.80;6.40;;;;;;;;;;5048109;28;20837;-74
2021/12/14 03:53:10;;;;;;;21.90;7.80;;;;;;;;;;5050385;28;20516;-75
2021/12/14 03:55:38;;;;;;;13.03;5.80;;;;;;;;;;5051309;28;20465;-74
2021/12/14 03:58:11;;;;;;;9.40;4.30;;;;;;;;;;5040248;28;20433;-74
2021/12/14 04:00:40;;;;;;;10.33;4.30;;;;;;;;;;5049927;28;20513;-74
2021/12/14 04:03:11;;;;;;;16.33;4.90;;;;;;;;;;5084105;28;20896;-74
2021/12/14 04:05:38;;;;;;;21.40;6.50;;;;;;;;;;5082242;28;20895;-75
2021/12/14 04:08:04;;;;;;;8.57;4.33;;;;;;;;;;5074390;28;20579;-76
2021/12/14 04:10:33;;;;;;;36.50;8.93;;;;;;;;;;5084306;28;20416;-76
2021/12/14 04:12:59;;;;;;;20.53;7.10;;;;;;;;;;5079414;28;20822;-76
2021/12/14 04:15:26;;;;;;;18.33;8.33;;;;;;;;;;5074003;28;20539;-76
2021/12/14 04:17:53;;;;;;;24.47;8.70;;;;;;;;;;5076185;28;20768;-76
2021/12/14 04:20:25;;;;;;;15.67;6.80;;;;;;;;;;5088586;28;20404;-76
2021/12/14 04:22:52;;;;;;;19.87;6.47;;;;;;;;;;5077246;28;20488;-76
2021/12/14 04:25:21;;;;;;;20.70;7.50;;;;;;;;;;5089747;28;20416;-76
2021/12/14 04:27:47;;;;;;;21.37;9.60;;;;;;;;;;5081665;28;20420;-76
2021/12/14 04:30:17;;;;;;;14.53;7.20;;;;;;;;;;5083514;28;20425;-76
2021/12/14 04:32:47;;;;;;;29.23;9.87;;;;;;;;;;5086992;28;20489;-77
2021/12/14 04:35:13;;;;;;;59.80;12.10;;;;;;;;;;5074048;28;20452;-76
2021/12/14 04:37:42;;;;;;;19.57;8.63;;;;;;;;;;5083754;28;20461;-76
2021/12/14 04:40:25;;;;;;;27.33;9.30;;;;;;;;;;5085627;28;20423;-76
2021/12/14 04:53:55;;;;;;;19.63;9.10;;;;;;;;;;5083534;28;20938;-75
2021/12/14 04:56:23;;;;;;;21.43;10.00;;;;;;;;;;5075196;28;20758;-74
2021/12/14 04:59:19;;;;;;;28.67;10.80;;;8.40;1.00;;;;;;5080123;28;20429;-74
2021/12/14 05:01:47;;;;;;;34.93;11.80;;;;;;;;;;5051790;28;20520;-74
2021/12/14 05:04:17;;;;;;;23.23;11.07;;;;;;;;;;5054935;28;20500;-74
2021/12/14 05:06:47;;;;;;;20.43;10.43;;;;;;;;;;5054941;28;20896;-74
2021/12/14 05:09:27;;;;;;;25.60;10.30;;;;;;;;;;5052036;28;20457;-75
2021/12/14 05:11:55;;;;;;;22.10;10.27;;;;;;;;;;5054337;28;20571;-74
2021/12/14 05:14:23;;;;;;;27.90;11.13;;;;;;;;;;5054607;28;20475;-75
2021/12/14 05:16:53;;;;;;;38.17;13.60;;;;;;;;;;5054062;28;20450;-75
2021/12/14 05:19:22;;;;;;;20.20;9.90;;;;;;;;;;5050178;28;20525;-74
2021/12/14 05:21:50;;;;;;;26.37;11.60;;;;;;;;;;5049450;28;20896;-74
2021/12/14 05:24:25;;;;;;;31.13;12.20;;;;;;;;;;5054888;28;20445;-77
2021/12/14 05:26:59;;;;;;;27.17;11.10;;;;;;;;;;5054610;28;20417;-77
2021/12/14 05:29:26;;;;;;;33.20;11.80;;;;;;;;;;5030147;28;20434;-77
2021/12/14 05:31:52;;;;;;;33.43;12.80;;;;;;;;;;5045833;28;20498;-77
2021/12/14 05:34:20;;;;;;;30.87;13.00;;;;;;;;;;5054467;28;20434;-76
2021/12/14 05:36:56;;;;;;;25.50;10.90;;;;;;;;;;5054768;28;20571;-77
2021/12/14 05:39:45;;;;;;;27.73;12.27;;;;;;;;;;5084791;28;20467;-76
2021/12/14 05:45:02;;;;;;;29.87;12.57;;;;;;;;;;5097570;28;20395;-77
2021/12/14 05:47:29;;;;;;;42.27;13.07;;;;;;;;;;5089829;28;20432;-76
2021/12/14 05:49:55;;;;;;;29.33;12.03;;;;;;;;;;5088097;28;20405;-76
2021/12/14 05:52:27;;;;;;;30.53;12.60;;;;;;;;;;5076186;28;20405;-76
2021/12/14 05:54:55;;;;;;;28.53;11.33;;;;;;;;;;5082013;28;20461;-76
2021/12/14 05:57:25;;;;;;;28.63;12.40;;;;;;;;;;5085012;28;20509;-79
2021/12/14 05:59:52;;;;;;;43.73;14.63;;;;;;;;;;5084543;28;20425;-77
2021/12/14 06:02:23;;;;;;;28.03;11.57;;;;;;;;;;5089253;28;20396;-78
2021/12/14 06:04:50;;;;;;;25.47;12.23;;;;;;;;;;5082390;28;20408;-80
2021/12/14 06:07:19;;;;;;;32.57;12.90;;;;;;;;;;5082984;28;20748;-75
2021/12/14 06:09:47;;;;;;;26.70;12.10;;;;;;;;;;5084436;28;20413;-75
2021/12/14 06:12:16;;;;;;;35.97;13.17;;;;;;;;;;5074615;28;20424;-75
2021/12/14 06:14:51;;;;;;;33.27;13.70;;;;;;;;;;5074578;28;20879;-76
2021/12/14 06:17:40;;;;;;;27.47;12.40;;;;;;;;;;5075688;28;20913;-76
2021/12/14 06:20:08;;;;;;;26.87;12.10;;;;;;;;;;5086403;28;20416;-78
2021/12/14 06:22:35;;;;;;;30.37;13.60;;;;;;;;;;5082584;28;20469;-77
2021/12/14 06:25:04;;;;;;;23.90;12.47;;;;;;;;;;5091472;28;20419;-76
2021/12/14 06:27:32;;;;;;;27.83;11.27;;;;;;;;;;5076065;28;20919;-76
2021/12/14 06:30:04;;;;;;;27.33;12.50;;;;;;;;;;5077152;28;20768;-76
2021/12/14 06:32:32;;;;;;;32.17;12.90;;;;;;;;;;5075476;28;20429;-76
2021/12/14 06:35:00;;;;;;;40.83;14.60;;;;;;;;;;5075385;28;20401;-76
2021/12/14 06:38:09;;;;;;;38.53;13.83;;;;;;;;;;5083418;28;20432;-76
2021/12/14 06:40:41;;;;;;;37.07;12.03;;;;;;;;;;5084601;28;20497;-76
2021/12/14 06:43:10;;;;;;;34.90;13.90;;;;;;;;;;5081560;28;20922;-76
2021/12/14 06:45:43;;;;;;;27.57;11.87;;;;;;;;;;5088716;28;20416;-77
2021/12/14 06:48:11;;;;;;;27.17;11.80;;;;;;;;;;5082829;28;20413;-76
2021/12/14 06:50:41;;;;;;;36.93;13.97;;;;;;;;;;5075225;28;20412;-76
2021/12/14 06:53:12;;;;;;;33.23;14.13;;;;;;;;;;5076794;28;20722;-77
2021/12/14 06:55:39;;;;;;;34.30;13.50;;;;;;;;;;5089272;28;20448;-76
2021/12/14 06:58:13;;;;;;;29.67;13.67;;;;;;;;;;5079280;28;20435;-75
2021/12/14 07:00:41;;;;;;;29.70;13.30;;;;;;;;;;5074983;28;20516;-74
2021/12/14 07:03:07;;;;;;;34.63;13.00;;;;;;;;;;5078773;28;20504;-74
2021/12/14 07:05:34;;;;;;;32.10;12.93;;;;;;;;;;5074866;28;20500;-74
2021/12/14 07:08:09;;;;;;;34.27;12.50;;;;;;;;;;5074862;28;20500;-74
2021/12/14 07:10:36;;;;;;;29.60;12.50;;;;;;;;;;5082140;28;20437;-74
2021/12/14 07:13:11;;;;;;;37.03;13.07;;;8.70;1.00;;;;;;5076445;28;20421;-76
2021/12/14 07:15:37;;;;;;;29.03;13.13;;;;;;;;;;5085672;28;20962;-76
2021/12/14 07:18:07;;;;;;;31.63;12.10;;;;;;;;;;5082007;28;20456;-76
2021/12/14 07:20:50;;;;;;;30.57;10.90;;;;;;;;;;5078983;28;20437;-77
2021/12/14 07:23:21;;;;;;;25.93;11.93;;;;;;;;;;5074010;28;20396;-76
2021/12/14 07:25:52;;;;;;;41.27;13.70;;;;;;;;;;5080409;28;20402;-77
2021/12/14 07:28:19;;;;;;;28.33;11.63;;;;;;;;;;5083285;28;20393;-76
2021/12/14 07:30:45;;;;;;;30.50;12.17;;;;;;;;;;5092556;28;20451;-76
2021/12/14 07:33:15;;;;;;;31.20;11.90;;;8.70;1.00;;;;;;5083045;28;20511;-76
2021/12/14 07:35:48;;;;;;;32.37;12.93;;;;;;;;;;5079130;28;20483;-78
2021/12/14 07:38:20;;;;;;;25.53;12.67;;;;;;;;;;5081904;28;20438;-76
2021/12/14 07:40:49;;;;;;;22.10;10.87;;;;;;;;;;5087960;28;20459;-76
2021/12/14 07:43:23;;;;;;;38.40;13.00;;;;;;;;;;5082494;28;20401;-77
2021/12/14 07:45:54;;;;;;;28.43;12.80;;;;;;;;;;5096400;28;20424;-76
2021/12/14 07:48:45;;;;;;;32.40;13.03;;;;;;;;;;5081407;28;20487;-77
2021/12/14 07:51:12;;;;;;;36.60;13.17;;;;;;;;;;5079377;28;20927;-76
2021/12/14 07:53:41;;;;;;;30.07;12.20;;;;;;;;;;5085050;28;20407;-77
2021/12/14 07:56:22;;;;;;;33.87;13.27;;;;;;;;;;5086796;28;20524;-76
2021/12/14 07:58:48;;;;;;;41.07;14.40;;;;;;;;;;5074244;28;20405;-74
2021/12/14 08:01:17;;;;;;;32.50;12.63;;;;;;;;;;5081643;28;20890;-74
2021/12/14 08:03:43;;;;;;;24.77;11.70;;;;;;;;;;5086549;28;20503;-74
2021/12/14 08:06:11;;;;;;;35.40;13.23;;;;;;;;;;5073956;28;20417;-74
2021/12/14 08:08:44;;;;;;;38.00;12.00;;;;;;;;;;5073921;28;20405;-74
2021/12/14 08:14:05;;;;;;;33.83;12.90;;;;;;;;;;5075420;28;20421;-74
2021/12/14 08:16:46;;;;;;;27.80;11.80;;;;;;;;;;5082006;28;20455;-74
2021/12/14 08:19:24;;;;;;;23.63;11.30;;;;;;;;;;5073441;28;20765;-74
2021/12/14 08:21:50;;;;;;;28.83;12.70;;;;;;;;;;5086693;28;20404;-74
2021/12/14 08:24:16;;;;;;;31.17;12.80;;;;;;;;;;5073931;28;20509;-74
2021/12/14 08:26:46;;;;;;;304.43;35.27;;;;;;;;;;5069658;28;20411;-74
2021/12/14 08:29:15;;;;;;;36.87;13.70;;;;;;;;;;5077183;28;20436;-75
2021/12/14 08:31:44;;;;;;;27.13;12.20;;;;;;;;;;5086514;28;21440;-74
2021/12/14 08:34:17;;;;;;;36.87;12.70;;;8.70;1.00;;;;;;5073768;28;20417;-74
2021/12/14 08:36:47;;;;;;;35.67;13.00;;;;;;;;;;5078381;28;20929;-74
2021/12/14 08:39:27;;;;;;;25.30;10.03;;;;;;;;;;5071998;28;20428;-74
2021/12/14 08:42:14;;;;;;;29.67;12.20;;;8.70;1.00;;;;;;5074235;28;20756;-74
2021/12/14 08:44:49;;;;;;;34.43;14.23;;;;;;;;;;5087931;28;20443;-76
2021/12/14 08:47:20;;;;;;;30.80;13.53;;;;;;;;;;5085150;28;20416;-77
2021/12/14 08:49:50;;;;;;;314.80;38.03;;;;;;;;;;5069244;28;20424;-76
2021/12/14 08:52:16;;;;;;;30.47;13.43;;;;;;;;;;5072354;28;20421;-76
2021/12/14 08:54:43;;;;;;;64.87;17.50;;;;;;;;;;5075870;28;20475;-76
2021/12/14 08:57:14;;;;;;;47.67;15.40;;;;;;;;;;5089559;28;20440;-76
2021/12/14 08:59:42;;;;;;;38.10;13.83;;;;;;;;;;5073670;28;20397;-76
2021/12/14 09:02:12;;;;;;;31.50;13.53;;;;;;;;;;5073159;28;20409;-77
2021/12/14 09:04:51;;;;;;;26.57;12.50;;;;;;;;;;5072009;28;20409;-76
2021/12/14 09:07:20;;;;;;;58.80;17.37;;;;;;;;;;5083130;28;20470;-78
2021/12/14 09:09:46;;;;;;;30.97;13.60;;;;;;;;;;5079960;28;21090;-77
2021/12/14 09:12:12;;;;;;;44.80;14.97;;;;;;;;;;5076855;28;20791;-77
2021/12/14 09:14:41;;;;;;;40.23;14.97;;;;;;;;;;5078719;28;20409;-77
2021/12/14 09:17:08;;;;;;;45.50;15.20;;;;;;;;;;5073774;28;20446;-77
2021/12/14 09:19:36;;;;;;;35.47;13.23;;;;;;;;;;5083638;28;20420;-76
2021/12/14 09:22:06;;;;;;;33.03;13.23;;;;;;;;;;5088030;28;20883;-77
2021/12/14 09:24:44;;;;;;;35.13;12.60;;;;;;;;;;5082708;28;20417;-77
2021/12/14 09:27:17;;;;;;;59.10;15.93;;;;;;;;;;5077050;28;20417;-77
2021/12/14 09:29:44;;;;;;;48.83;14.73;;;;;;;;;;5079396;28;20556;-74
2021/12/14 09:32:12;;;;;;;35.80;14.80;;;;;;;;;;5075050;28;20437;-74
2021/12/14 09:34:39;;;;;;;42.43;14.80;;;;;;;;;;5072873;28;20753;-74
2021/12/14 09:37:09;;;;;;;47.27;14.50;;;;;;;;;;5083509;28;20828;-74
2021/12/14 09:39:38;;;;;;;31.60;13.13;;;;;;;;;;5077901;28;20409;-75
2021/12/14 09:42:06;;;;;;;42.47;14.60;;;;;;;;;;5072770;28;20414;-74
2021/12/14 09:44:38;;;;;;;36.60;12.73;;;;;;;;;;5081640;28;20903;-77
2021/12/14 09:47:09;;;;;;;28.80;12.80;;;;;;;;;;5096364;28;20532;-77
2021/12/14 09:49:38;;;;;;;29.40;12.87;;;;;;;;;;5080778;28;20904;-76
2021/12/14 09:52:10;;;;;;;29.07;12.30;;;;;;;;;;5086547;28;20553;-77
2021/12/14 09:54:37;;;;;;;33.73;13.13;;;;;;;;;;5078057;28;20943;-76
2021/12/14 09:57:10;;;;;;;38.10;14.53;;;;;;;;;;5095915;28;20548;-78
2021/12/14 09:59:38;;;;;;;60.27;17.00;;;;;;;;;;5078640;28;20416;-78
2021/12/14 10:02:25;;;;;;;26.10;11.57;;;;;;;;;;5090601;28;20401;-79
2021/12/14 10:04:58;;;;;;;36.73;13.33;;;;;;;;;;5084095;28;20880;-77
2021/12/14 10:07:25;;;;;;;23.87;11.80;;;;;;;;;;5082429;28;20413;-78
2021/12/14 10:09:52;;;;;;;29.33;12.90;;;;;;;;;;5084090;28;20420;-77
2021/12/14 10:14:51;;;;;;;49.83;14.47;;;;;;;;;;5078334;28;20420;-74
2021/12/14 10:17:20;;;;;;;28.20;11.80;;;;;;;;;;5087614;28;20444;-74
2021/12/14 10:19:47;;;;;;;32.13;13.27;;;;;;;;;;5089064;28;20444;-74
2021/12/14 10:22:17;;;;;;;43.70;13.50;;;;;;;;;;5080294;28;20417;-74
2021/12/14 10:24:43;;;;;;;36.00;11.97;;;;;;;;;;5082684;28;20478;-74
2021/12/14 10:27:13;;;;;;;28.50;12.30;;;;;;;;;;5075604;28;20417;-74
2021/12/14 10:29:40;;;;;;;47.93;14.90;;;;;;;;;;5085353;28;20821;-77
2021/12/14 10:32:09;;;;;;;20.77;10.27;;;;;;;;;;5074998;28;20447;-77
2021/12/14 10:34:41;;;;;;;30.10;11.77;;;;;;;;;;5088521;28;20507;-76
2021/12/14 10:37:15;;;;;;;25.63;10.53;;;;;;;;;;5084166;28;20454;-77
2021/12/14 10:45:13;;;;;;;30.67;12.07;;;;;;;;;;5083892;28;20486;-76
2021/12/14 10:47:41;;;;;;;28.43;11.83;;;;;;;;;;5090296;28;20504;-76
2021/12/14 10:50:11;;;;;;;25.83;10.90;;;;;;;;;;5082296;28;20473;-77
2021/12/14 10:52:42;;;;;;;26.57;11.27;;;;;;;;;;5075953;28;20480;-76
2021/12/14 10:55:10;;;;;;;28.00;11.30;;;;;;;;;;5077462;28;20478;-76
2021/12/14 10:57:37;;;;;;;52.07;12.10;;;;;;;;;;5077783;28;20448;-77
2021/12/14 11:00:08;;;;;;;33.50;12.77;;;;;;;;;;5078381;28;20419;-76
2021/12/14 11:02:41;;;;;;;36.03;12.13;;;;;;;;;;5074967;28;20417;-77
2021/12/14 11:05:15;;;;;;;27.50;12.63;;;;;;;;;;5075750;28;20501;-77
2021/12/14 11:07:43;;;;;;;29.13;12.10;;;;;;;;;;5091136;28;20401;-77
2021/12/14 11:10:24;;;;;;;27.63;11.23;;;;;;;;;;5080615;28;20410;-76
2021/12/14 11:12:51;;;;;;;26.27;10.93;;;;;;;;;;5080388;28;20926;-77
2021/12/14 11:15:19;;;;;;;41.13;14.70;;;;;;;;;;5076403;28;20505;-74
2021/12/14 11:20:36;;;;;;;33.67;13.93;;;;;;;;;;5076037;28;20416;-74
2021/12/14 11:23:06;;;;;;;41.23;13.67;;;;;;;;;;5083334;28;20430;-74
2021/12/14 11:25:33;;;;;;;36.20;13.50;;;;;;;;;;5090075;28;20416;-74
2021/12/14 11:28:05;;;;;;;28.43;12.60;;;;;;;;;;5089148;28;20485;-74
2021/12/14 11:30:48;;;;;;;43.50;14.87;;;;;;;;;;5075657;28;20428;-77
2021/12/14 11:33:19;;;;;;;39.20;13.03;;;;;;;;;;5072763;28;20447;-76
2021/12/14 11:35:48;;;;;;;28.33;11.77;;;;;;;;;;5081264;28;20461;-76
2021/12/14 11:38:36;;;;;;;41.73;13.80;;;;;;;;;;5075240;28;20497;-76
2021/12/14 11:41:19;;;;;;;32.43;13.23;;;;;;;;;;5079597;28;20821;-76
2021/12/14 11:43:48;;;;;;;26.07;12.13;;;;;;;;;;5082168;28;20423;-74
2021/12/14 11:46:14;;;;;;;29.90;12.73;;;;;;;;;;5084328;28;20504;-74
2021/12/14 11:48:40;;;;;;;49.30;15.47;;;;;;;;;;5085310;28;20443;-74
2021/12/14 11:51:07;;;;;;;33.10;12.70;;;;;;;;;;5074038;28;20413;-74
2021/12/14 11:53:34;;;;;;;84.27;19.00;;;;;;;;;;5075106;28;20432;-74
2021/12/14 11:56:09;;;;;;;29.40;11.27;;;;;;;;;;5080595;28;20464;-74
2021/12/14 11:58:43;;;;;;;32.53;11.60;;;;;;;;;;5082527;28;20434;-74
2021/12/14 12:01:21;;;;;;;31.33;11.83;;;;;;;;;;5080497;28;20422;-74
2021/12/14 12:03:56;;;;;;;32.40;12.10;;;;;;;;;;5079415;28;20766;-74
2021/12/14 12:11:51;;;;;;;32.00;12.53;;;;;;;;;;5082072;28;20420;-74
2021/12/14 12:14:43;;;;;;;22.97;10.33;;;;;;;;;;5085509;28;20841;-74
2021/12/14 12:17:17;;;;;;;30.40;11.87;;;;;;;;;;5013870;28;20553;-74
2021/12/14 12:19:53;;;;;;;27.50;10.83;;;;;;;;;;5016734;28;20435;-74
2021/12/14 12:22:20;;;;;;;33.97;11.67;;;;;;;;;;5011631;28;20424;-74
2021/12/14 12:24:50;;;;;;;27.13;11.07;;;;;;;;;;5013401;28;20522;-75
2021/12/14 12:27:28;;;;;;;22.03;10.17;;;;;;;;;;5010824;28;20528;-75
2021/12/14 12:30:05;;;;;;;35.87;12.10;;;;;;;;;;5010769;28;20506;-74
2021/12/14 12:32:31;;;;;;;28.10;10.40;;;;;;;;;;5010494;28;20534;-74
2021/12/14 12:34:57;;;;;;;28.30;11.43;;;;;;;;;;5009786;28;20923;-74
2021/12/14 12:37:42;;;;;;;60.67;12.43;;;;;;;;;;5009917;28;20514;-74
2021/12/14 12:40:11;;;;;;;27.70;10.43;;;;;;;;;;5010530;28;20427;-74
2021/12/14 12:42:37;;;;;;;35.53;11.97;;;;;;;;;;5010366;28;20927;-74
2021/12/14 12:45:05;;;;;;;30.17;10.87;;;;;;;;;;5010475;28;20502;-74
2021/12/14 12:47:32;;;;;;;22.20;9.80;;;;;;;;;;5010402;28;20527;-74
2021/12/14 12:49:59;;;;;;;30.33;11.73;;;;;;;;;;5005664;28;20428;-74
2021/12/14 12:52:32;;;;;;;46.37;13.57;;;;;;;;;;5010312;28;20511;-74
2021/12/14 12:55:05;;;;;;;31.47;11.70;;;;;;;;;;5074742;28;20424;-74
2021/12/14 12:57:40;;;;;;;27.00;12.00;;;;;;;;;;5076968;28;20502;-74
2021/12/14 13:00:10;;;;;;;28.27;11.30;;;;;;;;;;5079299;28;20413;-76
2021/12/14 13:02:51;;;;;;;24.90;10.00;;;;;;;;;;5076059;28;20409;-76
2021/12/14 13:05:17;;;;;;;33.87;11.80;;;;;;;;;;5084241;28;20899;-77
2021/12/14 13:07:46;;;;;;;26.60;10.97;;;;;;;;;;5080846;28;20413;-76
2021/12/14 13:10:11;;;;;;;28.43;12.23;;;;;;;;;;5072536;28;20421;-76
2021/12/14 13:12:45;;;;;;;29.93;11.60;;;;;;;;;;5077252;28;20921;-78
2021/12/14 13:15:39;;;;;;;31.70;12.00;;;9.60;1.00;;;;;;5080450;28;20420;-78
2021/12/14 13:18:31;;;;;;;27.47;12.47;;;9.40;1.00;;;;;;5079230;28;20424;-77
2021/12/14 13:21:06;;;;;;;25.30;11.37;;;;;;;;;;5074364;28;20903;-76
2021/12/14 13:23:42;;;;;;;145.23;23.73;;;;;;;;;;5074382;28;20495;-77
2021/12/14 13:26:20;;;;;;;50.97;13.90;;;;;;;;;;5084156;28;20548;-76
2021/12/14 13:28:46;;;;;;;50.43;14.37;;;;;;;;;;5076159;28;20405;-76
2021/12/14 13:31:23;;;;;;;24.33;10.60;;;;;;;;;;5077553;28;20969;-77
2021/12/14 13:33:49;;;;;;;29.13;11.37;;;;;;;;;;5085911;28;20503;-74
2021/12/14 13:36:15;;;;;;;33.57;11.53;;;;;;;;;;5080201;28;20475;-74
2021/12/14 13:38:41;;;;;;;29.50;12.10;;;;;;;;;;5078591;28;20401;-74
2021/12/14 13:41:18;;;;;;;30.77;11.00;;;;;;;;;;5077698;28;20416;-74
2021/12/14 13:43:44;;;;;;;23.23;10.50;;;;;;;;;;5083707;28;20416;-74
2021/12/14 13:46:10;;;;;;;40.07;10.37;;;;;;;;;;5076659;28;20497;-77
2021/12/14 13:48:38;;;;;;;30.53;11.07;;;;;;;;;;5086542;28;20409;-77
2021/12/14 13:51:07;;;;;;;27.47;12.40;;;;;;;;;;5090488;28;20416;-77
2021/12/14 13:53:33;;;;;;;33.10;11.50;;;;;;;;;;5092198;28;20919;-76
2021/12/14 13:56:00;;;;;;;23.80;10.53;;;;;;;;;;5082360;28;20603;-77
2021/12/14 13:58:27;;;;;;;38.10;12.00;;;;;;;;;;5075216;28;20417;-77
2021/12/14 14:00:55;;;;;;;28.00;10.60;;;;;;;;;;5075865;28;20448;-74
2021/12/14 14:03:23;;;;;;;64.13;15.40;;;;;;;;;;5074071;28;20821;-74
2021/12/14 14:05:49;;;;;;;32.53;11.67;;;;;;;;;;5075460;28;20417;-74
2021/12/14 14:08:17;;;;;;;33.97;12.13;;;;;;;;;;5082247;28;20447;-74
2021/12/14 14:10:45;;;;;;;26.13;10.60;;;;;;;;;;5073830;28;20455;-74
2021/12/14 14:13:12;;;;;;;33.17;11.90;;;;;;;;;;5080355;28;20417;-74
2021/12/14 14:15:40;;;;;;;38.73;12.23;;;;;;;;;;5075292;28;20856;-75
2021/12/14 14:18:07;;;;;;;27.10;10.23;;;;;;;;;;5073903;28;20789;-75
2021/12/14 14:20:35;;;;;;;29.93;10.47;;;;;;;;;;5075215;28;20424;-75
2021/12/14 14:23:13;;;;;;;30.93;11.10;;;;;;;;;;5075167;28;20409;-75
2021/12/14 14:25:44;;;;;;;31.80;11.07;;;;;;;;;;5075034;28;20499;-75
2021/12/14 14:28:24;;;;;;;36.67;12.20;;;;;;;;;;5078484;28;20477;-75
2021/12/14 14:30:51;;;;;;;27.33;11.37;;;;;;;;;;5075096;28;20417;-78
2021/12/14 14:33:22;;;;;;;26.63;10.43;;;;;;;;;;5074957;28;20448;-78
2021/12/14 14:35:51;;;;;;;32.03;10.23;;;;;;;;;;5080481;28;20590;-79
2021/12/14 14:38:37;;;;;;;20.40;8.83;;;;;;;;;;5083980;28;20425;-77
2021/12/14 14:41:22;;;;;;;33.87;10.83;;;9.30;1.00;;;;;;5075054;28;20405;-77
2021/12/14 14:44:06;;;;;;;20.33;9.00;;;;;;;;;;5094475;28;20887;-74
2021/12/14 14:46:38;;;;;;;31.83;10.40;;;;;;;;;;5075670;28;20413;-78
2021/12/14 14:49:14;;;;;;;24.30;9.47;;;;;;;;;;5079526;28;20433;-77
2021/12/14 14:51:46;;;;;;;28.77;10.30;;;;;;;;;;5074798;28;20385;-76
2021/12/14 14:54:32;;;;;;;29.37;10.77;;;;;;;;;;5074133;28;20434;-78
2021/12/14 14:57:10;;;;;;;24.33;10.03;;;;;;;;;;5082170;28;20548;-78
2021/12/14 14:59:41;;;;;;;26.23;10.10;;;;;;;;;;5081428;28;20409;-78
2021/12/14 15:02:08;;;;;;;33.93;11.00;;;;;;;;;;5074479;28;20417;-80
2021/12/14 15:04:59;;;;;;;25.80;10.03;;;9.10;1.00;;;;;;5074397;28;20409;-82
2021/12/14 15:08:05;;;;;;;26.50;10.30;;;9.10;1.00;;;;;;5081410;28;20960;-79
2021/12/14 15:10:34;;;;;;;26.63;9.80;;;;;;;;;;5074272;28;20420;-77
2021/12/14 15:13:19;;;;;;;39.87;11.70;;;;;;;;;;5079574;28;20405;-76
2021/12/14 15:16:03;;;;;;;30.60;10.90;;;9.10;1.00;;;;;;5083178;28;20475;-77
2021/12/14 15:18:43;;;;;;;15.80;8.93;;;;;;;;;;5076848;28;20413;-75
2021/12/14 15:21:25;;;;;;;31.83;11.20;;;;;;;;;;5073846;28;20405;-75
2021/12/14 15:23:52;;;;;;;23.70;10.83;;;;;;;;;;5073851;28;20413;-74
2021/12/14 15:26:18;;;;;;;27.37;10.53;;;;;;;;;;5073172;28;20432;-74